Flight Track Log - Related Links

Times and Time Zones

All times are in EDT time to prevent confusion due to time zone crossing. See the N45BB flight status page for this flight to view local times or setup timezone preferences in your user account.


Time Position Orientation Groundspeed Altitude Reporting Facility
EDT Latitude Longitude Course Direction KTS MPH feet Rate Location/Type
Sat 08:24:17 PM 34.6581 -82.9833 301° West 196 226 2,700  Level Atlanta Center
Sat 08:25:17 PM 34.6769 -83.0208 301° West 158 182 3,600 900 Climbing Atlanta Center
Sat 08:26:17 PM 34.6939 -83.0561 300° West 133 153 4,500 850 Climbing Atlanta Center
Sat 08:27:17 PM 34.7150 -83.0886 308° West 128 147 5,300 750 Climbing Atlanta Center
Sat 08:28:17 PM 34.7342 -83.1264 302° West 123 142 6,000 800 Climbing Atlanta Center
Sat 08:29:17 PM 34.7575 -83.1589 311° West 128 147 6,900 800 Climbing Atlanta Center
Sat 08:30:17 PM 34.7744 -83.1992 297° West 128 147 7,600 800 Climbing Atlanta Center
Sat 08:31:17 PM 34.7933 -83.2369 301° West 134 154 8,500 850 Climbing Atlanta Center
Sat 08:32:17 PM 34.8125 -83.2747 302° West 134 154 9,300 700 Climbing Atlanta Center
Sat 08:33:17 PM 34.8314 -83.3075 305° West 134 154 9,900 650 Climbing Atlanta Center
Sat 08:34:17 PM 34.8525 -83.3428 306° West 129 148 10,600 700 Climbing Atlanta Center
Sat 08:35:17 PM 34.8736 -83.3728 311° West 118 136 11,300 600 Climbing Atlanta Center
Sat 08:36:17 PM 34.8944 -83.4083 306° West 126 145 11,800 300 Climbing Atlanta Center
Sat 08:37:17 PM 34.9239 -83.4433 316° Northwest 136 157 11,900 50 Climbing Atlanta Center
Sat 08:38:17 PM 34.9575 -83.4811 317° Northwest 141 162 11,900  Level Atlanta Center
Sat 08:39:17 PM 34.9911 -83.5189 317° Northwest 153 176 11,900  Level Atlanta Center
Sat 08:40:17 PM 35.0247 -83.5719 308° West 165 190 11,900  Level Atlanta Center
Sat 08:41:17 PM 35.0519 -83.6150 308° West 171 197 11,900  Level Atlanta Center
Sat 08:42:17 PM 35.0833 -83.6606 310° West 176 203 11,900  Level Atlanta Center
Sat 08:43:17 PM 35.1064 -83.7139 298° West 176 203 11,900  Level Atlanta Center
Sat 08:44:17 PM 35.1317 -83.7619 303° West 176 203 11,900  Level Atlanta Center
Sat 08:45:17 PM 35.1569 -83.8128 301° West 171 197 11,900  Level Atlanta Center
Sat 08:46:17 PM 35.1797 -83.8608 300° West 171 197 11,900  Level Atlanta Center
Sat 08:47:17 PM 35.2028 -83.9142 298° West 171 197 11,900  Level Atlanta Center
Sat 08:48:17 PM 35.2281 -83.9625 303° West 171 197 11,900  Level Atlanta Center
Sat 08:49:17 PM 35.2508 -84.0108 300° West 171 197 11,900  Level Atlanta Center
Sat 08:50:17 PM 35.2739 -84.0617 299° West 171 197 11,900  Level Atlanta Center
Sat 08:51:17 PM 35.2989 -84.1100 302° West 171 197 11,900  Level Atlanta Center
Sat 08:52:17 PM 35.3219 -84.1608 299° West 171 197 11,900  Level Atlanta Center
Sat 08:53:17 PM 35.3489 -84.2119 303° West 171 197 11,900  Level Atlanta Center
Sat 08:54:17 PM 35.3739 -84.2628 301° West 171 197 11,900  Level Atlanta Center
Sat 08:55:17 PM 35.3989 -84.3139 301° West 171 197 11,900  Level Atlanta Center
Sat 08:56:17 PM 35.4236 -84.3625 302° West 176 203 11,900  Level Atlanta Center
Sat 08:57:17 PM 35.4486 -84.4136 301° West 176 203 11,900 50 Level Atlanta Center
Sat 08:58:17 PM 35.4733 -84.4647 301° West 176 203 12,000  Climbing Atlanta Center
Sat 08:59:17 PM 35.4983 -84.5158 301° West 176 203 11,900  Descending Atlanta Center
Sat 09:00:17 PM 35.5211 -84.5644 300° West 176 203 12,000 50 Climbing Atlanta Center
Sat 09:01:17 PM 35.5481 -84.6181 302° West 176 203 12,000  Level Atlanta Center
Sat 09:02:17 PM 35.5706 -84.6669 300° West 176 203 12,000  Level Atlanta Center
Sat 09:03:17 PM 35.5953 -84.7181 301° West 176 203 12,000  Level Atlanta Center
Sat 09:04:17 PM 35.6181 -84.7719 297° West 176 203 12,000  Level Atlanta Center
Sat 09:06:29 PM 35.6728 -84.8831 301° West 178 205 12,000  Level Memphis Center
Sat 09:07:29 PM 35.6956 -84.9278 302° West 178 205 12,000  Level Memphis Center
Sat 09:08:29 PM 35.7189 -84.9797 299° West 178 205 12,000  Level Memphis Center
Sat 09:09:29 PM 35.7439 -85.0319 301° West 178 205 12,000  Level Memphis Center
Sat 09:10:29 PM 35.7669 -85.0842 299° West 178 205 12,000  Level Memphis Center
Sat 09:11:29 PM 35.7922 -85.1364 301° West 178 205 12,000  Level Memphis Center
Sat 09:12:29 PM 35.8153 -85.1886 299° West 178 205 12,000  Level Memphis Center
Sat 09:13:29 PM 35.8403 -85.2383 302° West 178 205 12,000  Level Memphis Center
Sat 09:14:29 PM 35.8653 -85.2906 301° West 178 205 12,000  Level Memphis Center
Sat 09:15:29 PM 35.8906 -85.3453 300° West 178 205 12,000  Level Memphis Center
Sat 09:16:29 PM 35.9133 -85.3978 298° West 178 205 12,000 -350 Level Memphis Center
Sat 09:17:29 PM 35.9386 -85.4550 299° West 178 205 11,300 -550 Descending Memphis Center
Sat 09:18:29 PM 35.9681 -85.5122 302° West 184 212 10,900 -450 Descending Memphis Center
Sat 09:19:29 PM 35.9975 -85.5722 301° West 195 224 10,400 -500 Descending Memphis Center
Sat 09:20:29 PM 36.0225 -85.6297 298° West 195 224 9,900 -500 Descending Memphis Center
Sat 09:21:29 PM 36.0478 -85.6900 297° West 195 224 9,400 -550 Descending Memphis Center
Sat 09:22:29 PM 36.0728 -85.7475 298° West 195 224 8,800 -600 Descending Memphis Center
Sat 09:23:29 PM 36.1000 -85.8050 300° West 195 224 8,200 -750 Descending Memphis Center
Sat 09:24:29 PM 36.1275 -85.8703 298° West 195 224 7,300 -900 Descending Memphis Center
Sat 09:25:29 PM 36.1567 -85.9278 302° West 195 224 6,400 -750 Descending Memphis Center
Sat 09:26:29 PM 36.1775 -85.9883 293° West 195 224 5,800 -600 Descending Memphis Center
Sat 09:27:29 PM 36.1981 -86.0389 297° West 190 219 5,200 -800 Descending Memphis Center
Sat 09:28:29 PM 36.2192 -86.1044 292° West 190 219 4,200 -800 Descending Memphis Center
Sat 09:29:29 PM 36.2397 -86.1628 294° West 196 226 3,600 -550 Descending Memphis Center
Sat 09:30:29 PM 36.2606 -86.2208 294° West 191 220 3,100 -400 Descending Memphis Center
Sat 09:31:29 PM 36.2789 -86.2739 293° West 181 208 2,800 -200 Descending Memphis Center
Sat 09:32:29 PM 36.2978 -86.3375 290° West 181 208 2,700 -100 Descending Memphis Center

Login

Don't have an account? Register now (free) for customized features, flight alerts, and more!